createdAt,value
2023-06-14T00:00:19.890Z,56.08
2023-06-14T00:03:13.216Z,55.85
2023-06-14T00:05:44.526Z,55.48
2023-06-14T00:08:12.619Z,55.54
2023-06-14T00:10:43.329Z,56.23
2023-06-14T00:13:13.058Z,56.07
2023-06-14T00:15:42.214Z,56.35
2023-06-14T00:18:12.855Z,57.20
2023-06-14T00:20:43.011Z,57.35
2023-06-14T00:23:11.647Z,57.51
2023-06-14T00:25:39.561Z,58.03
2023-06-14T00:28:07.437Z,58.09
2023-06-14T00:30:35.405Z,57.32
2023-06-14T00:33:03.715Z,57.74
2023-06-14T00:35:33.858Z,57.54
2023-06-14T00:38:02.836Z,57.87
2023-06-14T00:40:30.857Z,57.89
2023-06-14T00:42:58.875Z,57.59
2023-06-14T00:45:26.825Z,58.09
2023-06-14T00:47:56.626Z,58.64
2023-06-14T00:50:25.384Z,58.21
2023-06-14T00:52:53.344Z,58.27
2023-06-14T00:55:22.680Z,58.90
2023-06-14T00:57:50.910Z,59.31
2023-06-14T01:00:19.313Z,59.42
2023-06-14T01:02:48.723Z,59.68
2023-06-14T01:05:19.082Z,59.70
2023-06-14T01:08:21.115Z,59.92
2023-06-14T01:10:57.448Z,59.32
2023-06-14T01:13:41.006Z,59.34
2023-06-14T01:16:09.940Z,58.45
2023-06-14T01:18:39.004Z,58.26
2023-06-14T01:21:07.101Z,60.89
2023-06-14T01:23:36.632Z,61.20
2023-06-14T01:26:04.686Z,61.00
2023-06-14T01:28:35.109Z,60.12
2023-06-14T01:31:05.959Z,60.46
2023-06-14T01:33:39.138Z,60.00
2023-06-14T01:36:10.781Z,60.92
2023-06-14T01:38:39.115Z,60.38
2023-06-14T01:41:07.972Z,60.16
2023-06-14T01:43:36.656Z,59.68
2023-06-14T01:46:07.835Z,59.24
2023-06-14T01:48:36.346Z,59.59
2023-06-14T01:51:04.537Z,60.13
2023-06-14T01:53:32.491Z,60.00
2023-06-14T01:56:01.232Z,60.63
2023-06-14T01:58:29.054Z,60.94
2023-06-14T02:00:58.016Z,60.56
2023-06-14T02:03:26.331Z,60.47
2023-06-14T02:05:55.659Z,60.18
2023-06-14T02:08:24.520Z,60.38
2023-06-14T02:10:54.237Z,60.97
2023-06-14T02:13:22.117Z,61.03
2023-06-14T02:15:54.317Z,67.02
2023-06-14T02:18:24.205Z,68.37
2023-06-14T02:20:54.245Z,61.59
2023-06-14T02:23:22.142Z,54.24
2023-06-14T02:25:51.357Z,52.07
2023-06-14T02:28:19.408Z,52.94
2023-06-14T02:30:47.440Z,54.82
2023-06-14T02:33:15.318Z,55.85
2023-06-14T02:35:43.270Z,56.63
2023-06-14T02:38:12.976Z,57.26
2023-06-14T02:40:43.486Z,57.67
2023-06-14T02:43:11.301Z,57.79
2023-06-14T02:45:39.327Z,58.18
2023-06-14T02:48:07.395Z,58.64
2023-06-14T02:50:35.309Z,60.05
2023-06-14T02:53:04.587Z,60.93
2023-06-14T02:55:33.098Z,67.47
2023-06-14T02:58:01.326Z,68.30
2023-06-14T03:00:31.775Z,63.61
2023-06-14T03:03:02.956Z,56.66
2023-06-14T03:05:32.688Z,53.75
2023-06-14T03:08:01.265Z,53.54
2023-06-14T03:10:30.355Z,54.33
2023-06-14T03:12:58.510Z,55.22
2023-06-14T03:15:26.537Z,55.98
2023-06-14T03:17:55.225Z,56.57
2023-06-14T03:20:23.230Z,57.93
2023-06-14T03:22:51.405Z,58.42
2023-06-14T03:25:20.034Z,59.06
2023-06-14T03:27:47.811Z,59.39
2023-06-14T03:30:15.966Z,60.24
2023-06-14T03:32:44.245Z,60.49
2023-06-14T03:35:18.269Z,60.79
2023-06-14T03:37:47.609Z,65.45
2023-06-14T03:40:19.680Z,65.66
2023-06-14T03:42:47.396Z,62.77
2023-06-14T03:45:15.736Z,54.33
2023-06-14T03:47:43.843Z,52.54
2023-06-14T03:50:12.098Z,53.40
2023-06-14T03:52:41.400Z,54.50
2023-06-14T03:57:43.109Z,55.84
2023-06-14T04:00:13.274Z,57.16
2023-06-14T04:02:41.321Z,58.14
2023-06-14T04:05:10.013Z,57.94
2023-06-14T04:07:41.434Z,58.93
2023-06-14T04:10:09.777Z,60.49
2023-06-14T04:12:37.548Z,60.36
2023-06-14T04:15:20.839Z,66.17
2023-06-14T04:17:50.550Z,64.90
2023-06-14T04:20:19.052Z,56.48
2023-06-14T04:22:47.296Z,54.05
2023-06-14T04:25:16.170Z,55.30
2023-06-14T04:27:45.144Z,55.88
2023-06-14T04:30:14.567Z,57.20
2023-06-14T04:32:43.841Z,57.80
2023-06-14T04:35:12.634Z,58.36
2023-06-14T04:37:42.646Z,59.19
2023-06-14T04:40:12.800Z,59.02
2023-06-14T04:42:42.094Z,59.08
2023-06-14T04:45:11.131Z,59.40
2023-06-14T04:47:39.830Z,60.07
2023-06-14T04:50:08.080Z,60.37
2023-06-14T04:52:37.359Z,60.75
2023-06-14T04:55:06.469Z,60.72
2023-06-14T04:57:34.283Z,60.28
2023-06-14T05:00:05.921Z,60.41
2023-06-14T05:02:34.275Z,60.48
2023-06-14T05:05:03.507Z,60.54
2023-06-14T05:07:31.685Z,60.83
2023-06-14T05:09:59.553Z,60.48
2023-06-14T05:12:27.879Z,60.28
2023-06-14T05:14:55.828Z,60.07
2023-06-14T05:17:23.672Z,59.95
2023-06-14T05:19:51.922Z,59.99
2023-06-14T05:22:19.826Z,59.92
2023-06-14T05:24:49.508Z,60.38
2023-06-14T05:27:18.266Z,59.83
2023-06-14T05:29:48.345Z,59.87
2023-06-14T05:32:16.378Z,60.20
2023-06-14T05:34:44.582Z,60.35
2023-06-14T05:37:12.686Z,60.59
2023-06-14T05:39:40.538Z,60.80
2023-06-14T05:42:08.906Z,60.85
2023-06-14T05:44:36.663Z,60.88
2023-06-14T05:47:05.036Z,60.87
2023-06-14T05:49:32.923Z,60.78
2023-06-14T05:52:00.748Z,60.74
2023-06-14T05:54:28.644Z,60.87
2023-06-14T05:57:02.312Z,60.81
2023-06-14T05:59:30.532Z,60.52
2023-06-14T06:01:58.759Z,60.62
2023-06-14T06:04:27.088Z,60.52
2023-06-14T06:06:55.710Z,60.62
2023-06-14T06:09:23.554Z,60.79
2023-06-14T06:11:53.627Z,60.70
2023-06-14T06:14:23.438Z,60.89
2023-06-14T06:16:53.997Z,60.65
2023-06-14T06:19:21.792Z,60.06
2023-06-14T06:21:50.580Z,59.48
2023-06-14T06:24:18.493Z,59.35
2023-06-14T06:26:46.362Z,59.22
2023-06-14T06:29:14.312Z,58.99
2023-06-14T06:31:42.597Z,58.88
2023-06-14T06:34:11.133Z,58.66
2023-06-14T06:36:38.908Z,58.15
2023-06-14T06:39:11.369Z,58.13
2023-06-14T06:41:41.173Z,58.41
2023-06-14T06:44:11.860Z,58.31
2023-06-14T06:46:42.380Z,58.04
2023-06-14T06:49:13.203Z,57.76
2023-06-14T06:51:45.560Z,57.88
2023-06-14T06:54:14.063Z,57.75
2023-06-14T06:56:41.920Z,57.52
2023-06-14T06:59:10.540Z,57.86
2023-06-14T07:01:38.366Z,57.74
2023-06-14T07:04:06.470Z,57.72
2023-06-14T07:06:34.289Z,57.14
2023-06-14T07:09:02.636Z,56.93
2023-06-14T07:11:30.612Z,56.72
2023-06-14T07:13:58.764Z,56.53
2023-06-14T07:16:28.076Z,56.63
2023-06-14T07:18:56.243Z,56.39
2023-06-14T07:21:24.169Z,56.22
2023-06-14T07:23:52.307Z,56.03
2023-06-14T07:26:20.342Z,55.94
2023-06-14T07:28:49.847Z,55.53
2023-06-14T07:31:19.636Z,54.48
2023-06-14T07:33:47.607Z,54.42
2023-06-14T07:36:15.621Z,54.58
2023-06-14T07:38:43.405Z,54.28
2023-06-14T07:41:11.243Z,54.25
2023-06-14T07:43:39.053Z,54.49
2023-06-14T07:46:08.243Z,54.20
2023-06-14T07:48:36.815Z,53.81
2023-06-14T07:51:05.576Z,53.41
2023-06-14T07:53:33.501Z,52.48
2023-06-14T07:56:01.747Z,52.19
2023-06-14T07:58:29.932Z,51.20
2023-06-14T08:00:57.828Z,50.41
2023-06-14T08:03:25.740Z,49.68
2023-06-14T08:05:53.970Z,49.76
2023-06-14T08:08:22.252Z,49.70
2023-06-14T08:10:50.085Z,49.78
2023-06-14T08:13:17.845Z,49.65
2023-06-14T08:15:46.209Z,49.75
2023-06-14T08:18:14.085Z,49.91
2023-06-14T08:20:43.340Z,49.96
2023-06-14T08:23:12.636Z,49.90
2023-06-14T08:25:40.518Z,49.89
2023-06-14T08:28:08.335Z,49.48
2023-06-14T08:30:36.799Z,49.11
2023-06-14T08:33:15.850Z,48.98
2023-06-14T08:35:45.596Z,48.92
2023-06-14T08:38:13.686Z,48.88
2023-06-14T08:40:43.724Z,48.50
2023-06-14T08:43:11.894Z,47.84
2023-06-14T08:45:40.142Z,47.90
2023-06-14T08:48:09.330Z,47.44
2023-06-14T08:50:41.251Z,46.92
2023-06-14T08:53:11.503Z,46.57
2023-06-14T08:55:43.456Z,46.67
2023-06-14T08:58:15.766Z,46.30
2023-06-14T09:00:45.764Z,45.18
2023-06-14T09:03:18.338Z,44.23
2023-06-14T09:05:47.378Z,43.99
2023-06-14T09:08:17.481Z,43.89
2023-06-14T09:10:45.763Z,43.72
2023-06-14T09:13:13.583Z,43.26
2023-06-14T09:15:41.269Z,41.72
2023-06-14T09:18:09.067Z,40.73
2023-06-14T09:20:36.901Z,40.65
2023-06-14T09:23:06.731Z,39.59
2023-06-14T09:25:47.315Z,37.63
2023-06-14T09:28:15.853Z,36.98
2023-06-14T09:30:43.622Z,36.66
2023-06-14T09:33:12.347Z,37.34
2023-06-14T09:35:40.090Z,37.20
2023-06-14T09:38:08.517Z,36.78
2023-06-14T09:40:39.564Z,36.24
2023-06-14T09:43:11.970Z,35.72
2023-06-14T09:45:41.247Z,35.20
2023-06-14T09:48:12.215Z,35.32
2023-06-14T09:50:41.119Z,35.03
2023-06-14T09:53:12.042Z,34.46
2023-06-14T09:55:48.670Z,34.31
2023-06-14T09:58:18.478Z,33.54
2023-06-14T10:00:49.001Z,32.68
2023-06-14T10:03:37.100Z,32.09
2023-06-14T10:06:12.530Z,32.15
2023-06-14T10:08:44.430Z,31.95
2023-06-14T10:11:14.407Z,30.71
2023-06-14T10:13:42.392Z,30.33
2023-06-14T10:16:18.444Z,30.56
2023-06-14T10:19:04.582Z,29.90
2023-06-14T10:21:58.334Z,29.64
2023-06-14T10:24:34.195Z,29.37
2023-06-14T10:27:02.473Z,28.45
2023-06-14T10:29:33.907Z,27.75
2023-06-14T10:32:02.308Z,28.59
2023-06-14T10:34:32.213Z,27.43
2023-06-14T10:37:06.685Z,27.36
2023-06-14T10:39:45.382Z,25.87
2023-06-14T10:42:15.538Z,25.27
2023-06-14T10:45:03.913Z,25.27
2023-06-14T10:47:39.185Z,25.62
2023-06-14T10:50:08.959Z,25.92
2023-06-14T10:52:42.109Z,25.58
2023-06-14T10:55:16.588Z,25.43
2023-06-14T11:00:23.311Z,25.69
2023-06-14T11:03:09.978Z,24.69
2023-06-14T11:05:58.107Z,24.85
2023-06-14T11:08:52.993Z,24.78
2023-06-14T11:11:24.642Z,24.56
2023-06-14T11:13:55.909Z,24.56
2023-06-14T11:16:27.460Z,24.28
2023-06-14T11:18:55.902Z,24.27
2023-06-14T11:21:26.534Z,24.48
2023-06-14T11:23:55.716Z,25.05
2023-06-14T11:26:31.939Z,24.91
2023-06-14T11:29:02.273Z,24.94
2023-06-14T11:31:30.924Z,24.63
2023-06-14T11:34:01.812Z,24.62
2023-06-14T11:36:34.967Z,25.41
2023-06-14T11:39:10.652Z,25.36
2023-06-14T11:41:49.487Z,25.28
2023-06-14T11:44:17.458Z,24.85
2023-06-14T11:46:45.935Z,25.04
2023-06-14T11:49:15.120Z,25.18
2023-06-14T11:51:44.783Z,24.91
2023-06-14T11:54:13.518Z,25.46
2023-06-14T11:56:41.329Z,25.48
2023-06-14T11:59:09.112Z,25.14
2023-06-14T12:01:40.302Z,24.95
2023-06-14T12:04:08.772Z,25.23
2023-06-14T12:06:40.849Z,25.45
2023-06-14T12:09:14.798Z,25.31
2023-06-14T12:11:42.982Z,25.18
2023-06-14T12:14:11.606Z,25.38
2023-06-14T12:16:41.575Z,25.54
2023-06-14T12:19:14.353Z,25.53
2023-06-14T12:21:45.215Z,25.97
2023-06-14T12:24:14.299Z,26.08
2023-06-14T12:26:43.166Z,25.87
2023-06-14T12:29:11.508Z,25.91
2023-06-14T12:31:39.309Z,25.69
2023-06-14T12:34:07.089Z,25.87
2023-06-14T12:36:36.950Z,25.75
2023-06-14T12:39:06.656Z,25.98
2023-06-14T12:41:34.529Z,26.00
2023-06-14T12:44:05.474Z,25.36
2023-06-14T12:46:37.847Z,25.24
2023-06-14T12:49:06.610Z,25.11
2023-06-14T12:51:34.381Z,24.98
2023-06-14T12:54:02.198Z,25.17
2023-06-14T12:56:32.917Z,24.99
2023-06-14T12:59:01.008Z,24.90
2023-06-14T13:01:28.801Z,24.80
2023-06-14T13:03:56.724Z,24.28
2023-06-14T13:06:25.681Z,23.81
2023-06-14T13:08:58.380Z,23.95
2023-06-14T13:11:26.325Z,23.65
2023-06-14T13:13:54.160Z,23.92
2023-06-14T13:16:21.911Z,23.86
2023-06-14T13:18:51.295Z,23.20
2023-06-14T13:21:19.069Z,23.16
2023-06-14T13:23:46.865Z,23.52
2023-06-14T13:26:14.682Z,23.62
2023-06-14T13:28:43.580Z,23.78
2023-06-14T13:31:11.281Z,23.70
2023-06-14T13:33:41.495Z,23.75
2023-06-14T13:36:09.299Z,23.26
2023-06-14T13:38:37.092Z,22.95
2023-06-14T13:41:04.778Z,23.22
2023-06-14T13:43:34.074Z,23.65
2023-06-14T13:46:02.744Z,23.24
2023-06-14T13:48:30.612Z,22.94
2023-06-14T13:51:01.097Z,23.27
2023-06-14T13:53:29.045Z,23.45
2023-06-14T13:55:56.892Z,23.54
2023-06-14T13:58:27.102Z,23.36
2023-06-14T14:00:56.019Z,23.20
2023-06-14T14:03:24.098Z,23.36
2023-06-14T14:05:52.009Z,23.54
2023-06-14T14:08:19.803Z,23.57
2023-06-14T14:10:48.019Z,23.71
2023-06-14T14:13:16.036Z,23.81
2023-06-14T14:15:43.937Z,23.74
2023-06-14T14:18:11.967Z,23.69
2023-06-14T14:20:39.704Z,23.89
2023-06-14T14:23:08.018Z,23.74
2023-06-14T14:25:35.979Z,23.06
2023-06-14T14:28:03.816Z,23.36
2023-06-14T14:30:31.716Z,23.46
2023-06-14T14:33:00.817Z,23.27
2023-06-14T14:35:31.753Z,23.51
2023-06-14T14:37:59.900Z,23.79
2023-06-14T14:40:27.868Z,23.90
2023-06-14T14:42:55.557Z,23.95
2023-06-14T14:45:23.628Z,24.10
2023-06-14T14:47:52.851Z,23.89
2023-06-14T14:50:22.231Z,23.93
2023-06-14T14:52:50.468Z,24.14
2023-06-14T14:55:19.504Z,24.09
2023-06-14T14:57:49.922Z,24.32
2023-06-14T15:00:18.518Z,24.21
2023-06-14T15:02:46.817Z,24.41
2023-06-14T15:05:14.658Z,24.19
2023-06-14T15:07:42.465Z,24.20
2023-06-14T15:10:10.647Z,24.56
2023-06-14T15:12:39.200Z,24.90
2023-06-14T15:15:07.909Z,25.24
2023-06-14T15:17:35.768Z,25.43
2023-06-14T15:20:03.958Z,25.61
2023-06-14T15:22:32.197Z,25.45
2023-06-14T15:25:00.522Z,25.51
2023-06-14T15:27:29.017Z,25.69
2023-06-14T15:29:57.859Z,25.71
2023-06-14T15:32:25.976Z,25.62
2023-06-14T15:34:53.864Z,25.79
2023-06-14T15:37:22.955Z,25.89
2023-06-14T15:39:50.855Z,25.90
2023-06-14T15:42:19.915Z,25.84
2023-06-14T15:44:48.551Z,25.86
2023-06-14T15:47:16.444Z,25.97
2023-06-14T15:49:44.237Z,26.04
2023-06-14T15:52:19.584Z,25.93
2023-06-14T15:54:47.404Z,25.97
2023-06-14T15:57:15.998Z,26.23
2023-06-14T15:59:43.938Z,26.27
2023-06-14T16:02:12.844Z,26.17
2023-06-14T16:04:41.382Z,25.99
2023-06-14T16:07:09.407Z,26.03
2023-06-14T16:09:37.189Z,26.13
2023-06-14T16:12:05.456Z,25.65
2023-06-14T16:14:33.463Z,25.61
2023-06-14T16:17:02.286Z,25.39
2023-06-14T16:19:30.488Z,25.41
2023-06-14T16:21:59.527Z,25.37
2023-06-14T16:24:27.244Z,25.17
2023-06-14T16:26:55.466Z,25.02
2023-06-14T16:29:26.262Z,25.09
2023-06-14T16:31:54.321Z,25.00
2023-06-14T16:34:22.338Z,25.03
2023-06-14T16:36:51.846Z,25.02
2023-06-14T16:39:19.645Z,24.78
2023-06-14T16:41:47.828Z,24.94
2023-06-14T16:44:18.199Z,25.13
2023-06-14T16:46:46.188Z,25.25
2023-06-14T16:49:14.779Z,25.10
2023-06-14T16:51:43.354Z,24.64
2023-06-14T16:54:11.088Z,24.61
2023-06-14T16:56:38.781Z,24.66
2023-06-14T16:59:07.386Z,24.68
2023-06-14T17:01:36.316Z,24.68
2023-06-14T17:04:05.397Z,24.63
2023-06-14T17:06:33.609Z,24.33
2023-06-14T17:09:01.341Z,24.36
2023-06-14T17:11:31.005Z,24.39
2023-06-14T17:14:02.853Z,24.41
2023-06-14T17:16:34.298Z,24.38
2023-06-14T17:19:07.934Z,24.51
2023-06-14T17:21:36.029Z,24.42
2023-06-14T17:24:10.010Z,24.47
2023-06-14T17:26:50.222Z,24.73
2023-06-14T17:29:19.796Z,24.92
2023-06-14T17:31:48.483Z,24.77
2023-06-14T17:34:19.794Z,24.84
2023-06-14T17:36:48.654Z,24.91
2023-06-14T17:39:20.903Z,25.16
2023-06-14T17:41:52.254Z,25.40
2023-06-14T17:44:20.848Z,25.07
2023-06-14T17:46:50.250Z,25.14
2023-06-14T17:49:24.398Z,25.19
2023-06-14T17:51:53.984Z,25.37
2023-06-14T17:54:22.019Z,25.35
2023-06-14T17:56:49.788Z,25.45
2023-06-14T17:59:19.328Z,25.54
2023-06-14T18:01:51.068Z,25.60
2023-06-14T18:04:20.367Z,25.41
2023-06-14T18:06:48.371Z,25.09
2023-06-14T18:09:18.465Z,25.61
2023-06-14T18:11:47.611Z,25.61
2023-06-14T18:14:17.109Z,25.13
2023-06-14T18:16:46.791Z,25.53
2023-06-14T18:19:18.208Z,25.66
2023-06-14T18:21:48.310Z,25.78
2023-06-14T18:24:17.875Z,25.70
2023-06-14T18:26:45.673Z,25.65
2023-06-14T18:29:14.022Z,25.80
2023-06-14T18:31:43.281Z,25.83
2023-06-14T18:34:14.316Z,25.85
2023-06-14T18:36:45.206Z,25.89
2023-06-14T18:39:12.985Z,25.86
2023-06-14T18:41:41.160Z,25.84
2023-06-14T18:44:09.032Z,25.84
2023-06-14T18:46:38.924Z,25.66
2023-06-14T18:49:10.866Z,25.62
2023-06-14T18:51:40.511Z,25.74
2023-06-14T18:54:10.777Z,25.59
2023-06-14T18:56:38.995Z,25.41
2023-06-14T18:59:06.737Z,25.49
2023-06-14T19:01:34.457Z,25.40
2023-06-14T19:04:02.306Z,25.48
2023-06-14T19:06:30.799Z,25.37
2023-06-14T19:08:58.484Z,25.72
2023-06-14T19:11:27.126Z,25.71
2023-06-14T19:13:55.104Z,25.74
2023-06-14T19:16:23.347Z,25.80
2023-06-14T19:18:51.637Z,26.01
2023-06-14T19:21:20.446Z,26.05
2023-06-14T19:23:50.309Z,26.20
2023-06-14T19:26:19.178Z,26.48
2023-06-14T19:28:48.720Z,26.62
2023-06-14T19:31:18.960Z,26.80
2023-06-14T19:33:49.594Z,26.69
2023-06-14T19:36:20.719Z,26.75
2023-06-14T19:38:50.960Z,26.89
2023-06-14T19:41:19.034Z,26.83
2023-06-14T19:43:50.703Z,27.22
2023-06-14T19:46:18.746Z,27.35
2023-06-14T19:48:46.861Z,27.56
2023-06-14T19:51:14.691Z,27.86
2023-06-14T19:53:42.386Z,28.17
2023-06-14T19:56:13.602Z,28.58
2023-06-14T19:58:44.530Z,28.86
2023-06-14T20:01:13.208Z,29.30
2023-06-14T20:03:43.074Z,29.67
2023-06-14T20:06:12.366Z,29.86
2023-06-14T20:08:40.231Z,29.64
2023-06-14T20:11:10.132Z,29.76
2023-06-14T20:13:38.057Z,30.14
2023-06-14T20:16:06.570Z,30.52
2023-06-14T20:18:36.131Z,30.47
2023-06-14T20:21:04.831Z,31.07
2023-06-14T20:23:34.850Z,31.47
2023-06-14T20:26:04.182Z,31.85
2023-06-14T20:28:38.254Z,31.43
2023-06-14T20:31:09.295Z,31.77
2023-06-14T20:33:37.722Z,31.82
2023-06-14T20:36:06.374Z,31.56
2023-06-14T20:38:38.621Z,31.98
2023-06-14T20:41:06.700Z,32.15
2023-06-14T20:43:36.789Z,32.20
2023-06-14T20:46:08.506Z,32.29
2023-06-14T20:48:36.430Z,33.14
2023-06-14T20:51:04.463Z,33.77
2023-06-14T20:53:32.577Z,33.54
2023-06-14T20:56:01.878Z,33.28
2023-06-14T20:58:29.716Z,32.94
2023-06-14T21:00:58.407Z,33.16
2023-06-14T21:03:27.159Z,33.83
2023-06-14T21:05:58.062Z,34.12
2023-06-14T21:08:27.058Z,34.30
2023-06-14T21:10:57.635Z,34.36
2023-06-14T21:13:26.363Z,34.73
2023-06-14T21:15:54.360Z,34.19
2023-06-14T21:18:22.397Z,34.13
2023-06-14T21:20:54.937Z,34.55
2023-06-14T21:23:22.927Z,34.78
2023-06-14T21:25:50.625Z,35.21
2023-06-14T21:28:18.349Z,35.35
2023-06-14T21:30:47.553Z,35.96
2023-06-14T21:33:17.292Z,35.92
2023-06-14T21:35:47.657Z,36.62
2023-06-14T21:38:17.964Z,36.57
2023-06-14T21:40:48.243Z,36.75
2023-06-14T21:43:16.352Z,37.47
2023-06-14T21:45:45.129Z,37.74
2023-06-14T21:48:13.047Z,37.30
2023-06-14T21:50:42.955Z,37.57
2023-06-14T21:53:11.101Z,37.66
2023-06-14T21:55:40.976Z,37.98
2023-06-14T21:58:08.713Z,38.10
2023-06-14T22:00:37.801Z,38.10
2023-06-14T22:03:05.958Z,39.11
2023-06-14T22:05:34.460Z,39.26
2023-06-14T22:08:02.332Z,40.23
2023-06-14T22:10:34.025Z,40.32
2023-06-14T22:13:02.030Z,41.05
2023-06-14T22:15:30.392Z,40.67
2023-06-14T22:17:58.444Z,40.84
2023-06-14T22:20:29.983Z,40.52
2023-06-14T22:23:01.307Z,40.32
2023-06-14T22:25:31.596Z,40.63
2023-06-14T22:28:00.856Z,41.29
2023-06-14T22:30:29.104Z,41.17
2023-06-14T22:32:56.814Z,41.15
2023-06-14T22:35:25.924Z,40.94
2023-06-14T22:37:53.672Z,40.81
2023-06-14T22:40:21.825Z,42.11
2023-06-14T22:42:50.754Z,41.48
2023-06-14T22:45:25.502Z,42.02
2023-06-14T22:47:57.439Z,42.61
2023-06-14T22:50:26.279Z,43.00
2023-06-14T22:52:54.032Z,42.99
2023-06-14T22:55:22.371Z,43.25
2023-06-14T22:57:52.342Z,43.14
2023-06-14T23:00:20.522Z,42.69
2023-06-14T23:02:51.353Z,42.34
2023-06-14T23:05:20.527Z,42.42
2023-06-14T23:07:49.446Z,42.62
2023-06-14T23:10:19.354Z,43.14
2023-06-14T23:12:49.738Z,44.02
2023-06-14T23:15:17.791Z,44.15
2023-06-14T23:17:51.675Z,44.13
2023-06-14T23:20:20.039Z,43.97
2023-06-14T23:22:50.752Z,43.76
2023-06-14T23:25:20.740Z,43.80
2023-06-14T23:27:51.129Z,43.57
2023-06-14T23:30:19.342Z,43.46
2023-06-14T23:32:50.317Z,43.36
2023-06-14T23:35:22.332Z,43.54
2023-06-14T23:37:50.375Z,43.74
2023-06-14T23:40:18.904Z,44.01
2023-06-14T23:42:52.083Z,43.97
2023-06-14T23:45:20.637Z,46.19
2023-06-14T23:47:50.376Z,44.66
2023-06-14T23:50:19.950Z,44.69
2023-06-14T23:52:47.700Z,44.83
2023-06-14T23:55:21.441Z,45.09
2023-06-14T23:57:53.911Z,45.89
